Time;durP1;ratioP1;P1;durP2;ratioP2;P2;SDS_P1;SDS_P2;PMS_P1;PMS_P2;Temp;Humidity;BMP_temperature;BMP_pressure;BME280_temperature;BME280_humidity;BME280_pressure;Samples;Min_cycle;Max_cycle;Signal;HPM_P1;HPM_P2
2023/04/04 00:00:51;;;;;;;0.60;0.20;;;;;;;;;;5003943;28;58920;-66
2023/04/04 00:03:16;;;;;;;0.30;0.30;;;;;;;;;;5007187;28;57946;-66
2023/04/04 00:05:41;;;;;;;0.67;0.67;;;;;;;;;;5005497;28;58786;-66
2023/04/04 00:08:06;;;;;;;0.20;0.20;;;;;;;;;;5008694;28;58490;-65
2023/04/04 00:10:31;;;;;;;0.40;0.28;;;;;;;;;;5031049;22;58308;-66
2023/04/04 00:12:57;;;;;;;0.40;0.40;;;;;;;;;;5008111;28;57864;-66
2023/04/04 00:15:22;;;;;;;0.30;0.30;;;;;;;;;;5006523;28;58370;-66
2023/04/04 00:17:48;;;;;;;0.20;0.20;;;;;;;;;;5005315;28;58516;-66
2023/04/04 00:20:13;;;;;;;0.45;0.38;;;;;;;;;;5006871;28;58532;-66
2023/04/04 00:22:38;;;;;;;0.30;0.30;;;;;;;;;;5008202;28;57739;-66
2023/04/04 00:25:03;;;;;;;0.40;0.30;;;;;;;;;;5006330;28;58735;-66
2023/04/04 00:27:29;;;;;;;0.45;0.30;;;;;;;;;;5004631;28;58464;-67
2023/04/04 00:29:54;;;;;;;0.50;0.50;;;;;;;;;;5006797;28;58600;-65
2023/04/04 00:32:19;;;;;;;0.32;0.30;;;;;;;;;;5004024;28;58846;-66
2023/04/04 00:34:45;;;;;;;0.40;0.30;;;;;;;;;;5007923;28;58418;-66
2023/04/04 00:37:11;;;;;;;0.88;0.52;;;;;;;;;;5002026;28;59081;-66
2023/04/04 00:39:36;;;;;;;0.47;0.25;;;;;;;;;;5003967;28;58566;-66
2023/04/04 00:42:03;;;;;;;0.77;0.30;;;;;;;;;;5006971;28;58157;-66
2023/04/04 00:44:29;;;;;;;0.10;0.10;;;;;;;;;;5003760;28;59008;-65
2023/04/04 00:46:54;;;;;;;0.98;0.20;;;;;;;;;;5000876;28;58610;-66
2023/04/04 00:49:19;;;;;;;0.30;0.30;;;;;;;;;;5001905;28;58561;-67
2023/04/04 00:51:45;;;;;;;0.53;0.40;;;;;;;;;;4989621;28;58408;-66
2023/04/04 00:54:10;;;;;;;0.47;0.30;;;;;;;;;;4987561;28;58931;-66
2023/04/04 00:56:36;;;;;;;0.27;0.20;;;;;;;;;;4994699;28;58389;-66
2023/04/04 00:59:02;;;;;;;0.40;0.40;;;;;;;;;;4985493;28;59296;-66
2023/04/04 01:01:27;;;;;;;0.30;0.30;;;;;;;;;;4988157;28;58562;-67
2023/04/04 01:03:52;;;;;;;0.28;0.20;;;;;;;;;;4990907;28;58597;-67
2023/04/04 01:06:17;;;;;;;0.30;0.20;;;;;;;;;;4987398;28;58618;-66
2023/04/04 01:08:42;;;;;;;0.57;0.57;;;;;;;;;;4985461;28;58686;-67
2023/04/04 01:11:08;;;;;;;0.20;0.13;;;;;;;;;;4980510;28;58307;-65
2023/04/04 01:13:34;;;;;;;0.35;0.35;;;;;;;;;;4987270;28;58563;-66
2023/04/04 01:15:59;;;;;;;0.23;0.23;;;;;;;;;;4985985;28;59021;-67
2023/04/04 01:18:25;;;;;;;0.20;0.20;;;;;;;;;;4983301;28;58555;-66
2023/04/04 01:20:56;;;;;;;0.20;0.20;;;;;;;;;;4987017;28;58423;-66
2023/04/04 01:23:23;;;;;;;0.50;0.50;;;;;;;;;;5024990;22;58934;-66
2023/04/04 01:25:48;;;;;;;0.30;0.30;;;;;;;;;;4987851;28;58853;-66
2023/04/04 01:28:13;;;;;;;0.28;0.20;;;;;;;;;;4992278;28;58680;-66
2023/04/04 01:30:39;;;;;;;0.35;0.35;;;;;;;;;;4992052;28;59234;-66
2023/04/04 01:33:30;;;;;;;0.30;0.30;;;;;;;;;;4986588;28;58304;-66
2023/04/04 01:36:09;;;;;;;0.30;0.30;;;;;;;;;;4984294;28;58395;-66
2023/04/04 01:39:13;;;;;;;0.47;0.30;;;;;;;;;;4988871;28;61132;-66
2023/04/04 01:41:38;;;;;;;0.55;0.30;;;;;;;;;;4926644;28;58773;-66
2023/04/04 01:44:03;;;;;;;0.40;0.30;;;;;;;;;;4926607;28;59034;-66
2023/04/04 01:46:29;;;;;;;0.30;0.20;;;;;;;;;;4952418;28;58770;-66
2023/04/04 01:48:54;;;;;;;0.17;0.17;;;;;;;;;;4985302;28;58087;-66
2023/04/04 01:51:20;;;;;;;1.20;0.77;;;;;;;;;;4982033;28;58969;-66
2023/04/04 01:53:45;;;;;;;0.38;0.32;;;;;;;;;;4980167;28;58616;-66
2023/04/04 01:56:10;;;;;;;0.20;0.20;;;;;;;;;;4984478;28;59198;-65
2023/04/04 01:58:36;;;;;;;0.43;0.20;;;;;;;;;;4982491;28;58658;-65
2023/04/04 02:01:01;;;;;;;0.35;0.35;;;;;;;;;;4980780;28;58616;-65
2023/04/04 02:03:26;;;;;;;0.40;0.40;;;;;;;;;;4978792;28;58815;-65
2023/04/04 02:05:51;;;;;;;0.10;0.10;;;;;;;;;;4982490;28;58589;-65
2023/04/04 02:08:16;;;;;;;0.20;0.20;;;;;;;;;;4982072;28;58913;-65
2023/04/04 02:10:42;;;;;;;0.17;0.17;;;;;;;;;;4980081;28;58780;-64
2023/04/04 02:13:07;;;;;;;0.47;0.20;;;;;;;;;;4983557;28;58693;-65
2023/04/04 02:15:33;;;;;;;0.20;0.20;;;;;;;;;;4981083;28;58603;-65
2023/04/04 02:17:58;;;;;;;0.25;0.20;;;;;;;;;;4982221;28;58463;-65
2023/04/04 02:20:23;;;;;;;0.40;0.27;;;;;;;;;;4981192;28;58558;-65
2023/04/04 02:22:55;;;;;;;0.20;0.20;;;;;;;;;;4985412;28;58694;-65
2023/04/04 02:25:21;;;;;;;0.63;0.40;;;;;;;;;;4983868;28;58715;-65
2023/04/04 02:27:46;;;;;;;0.75;0.50;;;;;;;;;;4988672;28;58600;-65
2023/04/04 02:30:11;;;;;;;1.85;0.20;;;;;;;;;;5031504;22;58476;-65
2023/04/04 02:32:37;;;;;;;0.40;0.40;;;;;;;;;;5008172;28;58237;-65
2023/04/04 02:35:03;;;;;;;0.40;0.10;;;;;;;;;;5005935;28;58115;-65
2023/04/04 02:37:28;;;;;;;0.20;0.17;;;;;;;;;;5007497;28;59346;-65
2023/04/04 02:39:53;;;;;;;0.27;0.10;;;;;;;;;;5005986;28;58147;-65
2023/04/04 02:42:18;;;;;;;0.20;0.20;;;;;;;;;;5007945;28;59028;-65
2023/04/04 02:44:43;;;;;;;0.30;0.30;;;;;;;;;;5005362;28;58258;-65
2023/04/04 02:47:08;;;;;;;0.30;0.22;;;;;;;;;;5008046;28;58100;-65
2023/04/04 02:49:34;;;;;;;0.20;0.20;;;;;;;;;;5000804;28;57951;-64
2023/04/04 02:52:00;;;;;;;0.50;0.50;;;;;;;;;;4992521;28;58869;-65
2023/04/04 02:54:25;;;;;;;0.30;0.30;;;;;;;;;;4992896;28;58755;-65
2023/04/04 02:56:51;;;;;;;0.20;0.20;;;;;;;;;;4995325;28;58211;-65
2023/04/04 02:59:16;;;;;;;0.82;0.50;;;;;;;;;;4991650;28;58705;-65
2023/04/04 03:01:42;;;;;;;0.40;0.30;;;;;;;;;;4989257;28;58203;-65
2023/04/04 03:04:07;;;;;;;0.80;0.30;;;;;;;;;;4987044;28;58595;-65
2023/04/04 03:06:32;;;;;;;0.63;0.22;;;;;;;;;;4989407;28;58353;-65
2023/04/04 03:08:57;;;;;;;0.27;0.13;;;;;;;;;;4992046;28;58513;-65
2023/04/04 03:11:22;;;;;;;0.25;0.20;;;;;;;;;;4993398;28;58504;-65
2023/04/04 03:13:50;;;;;;;0.40;0.40;;;;;;;;;;4984007;28;58580;-65
2023/04/04 03:16:16;;;;;;;0.22;0.22;;;;;;;;;;4989944;28;58851;-65
2023/04/04 03:18:42;;;;;;;0.22;0.22;;;;;;;;;;4985605;28;58636;-65
2023/04/04 03:21:07;;;;;;;0.20;0.20;;;;;;;;;;4989947;28;58160;-65
2023/04/04 03:23:32;;;;;;;0.17;0.17;;;;;;;;;;4986832;28;58931;-65
2023/04/04 03:25:57;;;;;;;0.30;0.20;;;;;;;;;;4987364;28;58651;-65
2023/04/04 03:28:22;;;;;;;0.57;0.57;;;;;;;;;;4989280;28;58403;-65
2023/04/04 03:30:48;;;;;;;0.27;0.20;;;;;;;;;;4982813;28;58720;-65
2023/04/04 03:33:14;;;;;;;0.40;0.30;;;;;;;;;;4986747;28;58815;-64
2023/04/04 03:35:39;;;;;;;0.28;0.20;;;;;;;;;;4996531;28;58417;-64
2023/04/04 03:38:04;;;;;;;0.17;0.15;;;;;;;;;;4987161;28;58367;-64
2023/04/04 03:40:30;;;;;;;1.45;0.60;;;;;;;;;;4988170;28;58312;-66
2023/04/04 03:42:55;;;;;;;0.10;0.10;;;;;;;;;;4988598;28;58215;-65
2023/04/04 03:45:20;;;;;;;0.17;0.17;;;;;;;;;;4981809;28;58415;-65
2023/04/04 03:47:46;;;;;;;0.40;0.30;;;;;;;;;;4987059;28;59062;-65
2023/04/04 03:50:11;;;;;;;0.20;0.20;;;;;;;;;;4991164;28;60987;-65
2023/04/04 03:52:37;;;;;;;0.30;0.30;;;;;;;;;;4991518;28;58497;-64
2023/04/04 03:55:02;;;;;;;0.20;0.10;;;;;;;;;;4988858;28;58851;-64
2023/04/04 03:57:27;;;;;;;2.37;0.53;;;;;;;;;;4983866;28;59341;-65
2023/04/04 03:59:52;;;;;;;0.28;0.20;;;;;;;;;;4988549;28;58231;-65
2023/04/04 04:02:18;;;;;;;0.20;0.20;;;;;;;;;;4981594;28;58288;-65
2023/04/04 04:04:43;;;;;;;0.20;0.20;;;;;;;;;;4986730;28;58655;-65
2023/04/04 04:07:08;;;;;;;0.20;0.10;;;;;;;;;;5031022;22;57757;-65
2023/04/04 04:09:34;;;;;;;0.30;0.20;;;;;;;;;;5006325;28;58271;-65
2023/04/04 04:11:59;;;;;;;0.57;0.57;;;;;;;;;;5002077;28;58758;-65
2023/04/04 04:14:24;;;;;;;0.22;0.22;;;;;;;;;;5005683;28;58698;-64
2023/04/04 04:16:49;;;;;;;0.40;0.30;;;;;;;;;;5004479;28;58578;-65
2023/04/04 04:19:14;;;;;;;0.25;0.20;;;;;;;;;;5005029;28;58404;-65
2023/04/04 04:21:41;;;;;;;1.50;0.40;;;;;;;;;;5005570;28;58122;-64
2023/04/04 04:24:06;;;;;;;0.20;0.20;;;;;;;;;;5004604;28;58728;-65
2023/04/04 04:26:31;;;;;;;0.20;0.20;;;;;;;;;;5006624;28;59121;-65
2023/04/04 04:28:56;;;;;;;0.10;0.10;;;;;;;;;;5004092;28;58593;-65
2023/04/04 04:31:22;;;;;;;0.10;0.10;;;;;;;;;;5002098;28;58603;-65
2023/04/04 04:33:47;;;;;;;0.47;0.30;;;;;;;;;;5004634;28;59048;-65
2023/04/04 04:36:12;;;;;;;0.20;0.15;;;;;;;;;;5003203;28;58834;-65
2023/04/04 04:38:37;;;;;;;0.10;0.10;;;;;;;;;;5006100;28;58503;-65
2023/04/04 04:41:02;;;;;;;0.45;0.20;;;;;;;;;;5006397;28;58680;-65
2023/04/04 04:43:28;;;;;;;0.33;0.30;;;;;;;;;;5003411;28;58828;-65
2023/04/04 04:45:53;;;;;;;0.47;0.30;;;;;;;;;;5000535;28;58694;-65
2023/04/04 04:48:18;;;;;;;0.33;0.20;;;;;;;;;;5003793;28;58451;-65
2023/04/04 04:50:46;;;;;;;0.20;0.10;;;;;;;;;;5002005;28;58420;-64
2023/04/04 04:53:15;;;;;;;0.60;0.40;;;;;;;;;;5004435;28;58548;-65
2023/04/04 04:55:44;;;;;;;0.30;0.20;;;;;;;;;;5003434;28;58481;-65
2023/04/04 04:58:09;;;;;;;0.28;0.20;;;;;;;;;;5002906;28;59478;-64
2023/04/04 05:00:35;;;;;;;0.50;0.30;;;;;;;;;;5004381;28;59222;-65
2023/04/04 05:03:00;;;;;;;0.43;0.20;;;;;;;;;;5000639;28;58604;-65
2023/04/04 05:05:26;;;;;;;0.20;0.20;;;;;;;;;;4998635;28;58683;-64
2023/04/04 05:07:51;;;;;;;0.70;0.60;;;;;;;;;;5003979;28;59495;-65
2023/04/04 05:10:16;;;;;;;0.87;0.30;;;;;;;;;;5000290;28;58137;-65
2023/04/04 05:12:43;;;;;;;0.45;0.40;;;;;;;;;;5003239;28;58379;-64
2023/04/04 05:15:08;;;;;;;0.60;0.47;;;;;;;;;;5002698;28;58407;-64
2023/04/04 05:17:34;;;;;;;0.30;0.30;;;;;;;;;;5005513;28;58434;-65
2023/04/04 05:19:59;;;;;;;0.40;0.20;;;;;;;;;;5005486;28;58444;-65
2023/04/04 05:22:25;;;;;;;0.25;0.25;;;;;;;;;;5003860;28;58347;-65
2023/04/04 05:24:50;;;;;;;0.38;0.38;;;;;;;;;;5000108;28;58618;-65
2023/04/04 05:27:15;;;;;;;0.67;0.23;;;;;;;;;;5003111;28;58658;-65
2023/04/04 05:29:40;;;;;;;0.30;0.30;;;;;;;;;;5000150;28;59255;-65
2023/04/04 05:32:05;;;;;;;0.47;0.40;;;;;;;;;;5001968;28;58529;-65
2023/04/04 05:34:31;;;;;;;0.35;0.30;;;;;;;;;;4997827;28;58818;-65
2023/04/04 05:36:56;;;;;;;0.88;0.47;;;;;;;;;;5002272;28;57805;-65
2023/04/04 05:39:21;;;;;;;0.30;0.25;;;;;;;;;;5005110;28;59077;-65
2023/04/04 05:41:47;;;;;;;0.30;0.30;;;;;;;;;;4998675;28;58043;-65
2023/04/04 05:44:12;;;;;;;0.95;0.68;;;;;;;;;;5003916;28;58693;-65
2023/04/04 05:46:37;;;;;;;0.38;0.38;;;;;;;;;;5002454;28;58377;-65
2023/04/04 05:49:02;;;;;;;0.20;0.20;;;;;;;;;;5003362;28;59309;-64
2023/04/04 05:51:27;;;;;;;0.30;0.30;;;;;;;;;;5000173;28;58510;-65
2023/04/04 05:53:53;;;;;;;0.45;0.22;;;;;;;;;;4996887;28;58663;-65
2023/04/04 05:56:18;;;;;;;0.73;0.43;;;;;;;;;;4999555;28;58192;-65
2023/04/04 05:58:45;;;;;;;0.73;0.50;;;;;;;;;;5004578;28;58189;-65
2023/04/04 06:01:10;;;;;;;0.35;0.35;;;;;;;;;;5007502;28;58656;-65
2023/04/04 06:03:35;;;;;;;0.70;0.50;;;;;;;;;;5006356;28;58611;-65
2023/04/04 06:06:03;;;;;;;0.40;0.40;;;;;;;;;;5006464;28;58691;-65
2023/04/04 06:08:28;;;;;;;1.15;0.60;;;;;;;;;;5020959;22;58497;-65
2023/04/04 06:10:54;;;;;;;3.25;1.48;;;;;;;;;;4989488;28;58753;-65
2023/04/04 06:13:19;;;;;;;0.98;0.70;;;;;;;;;;4994510;28;58564;-65
2023/04/04 06:15:45;;;;;;;0.57;0.32;;;;;;;;;;4987998;28;58088;-65
2023/04/04 06:18:10;;;;;;;2.87;0.60;;;;;;;;;;4988750;28;58431;-64
2023/04/04 06:20:35;;;;;;;2.20;0.63;;;;;;;;;;4985567;28;58356;-65
2023/04/04 06:23:03;;;;;;;0.60;0.37;;;;;;;;;;4995683;28;58232;-64
2023/04/04 06:25:28;;;;;;;0.38;0.38;;;;;;;;;;4989521;28;58332;-65
2023/04/04 06:27:54;;;;;;;0.77;0.52;;;;;;;;;;4985186;28;58808;-64
2023/04/04 06:30:20;;;;;;;0.30;0.30;;;;;;;;;;4989027;28;58541;-64
2023/04/04 06:32:45;;;;;;;0.60;0.57;;;;;;;;;;4989917;28;58421;-65
2023/04/04 06:35:10;;;;;;;0.73;0.70;;;;;;;;;;4985549;28;58756;-64
2023/04/04 06:37:35;;;;;;;2.67;1.00;;;;;;;;;;4989163;28;58617;-65
2023/04/04 06:40:00;;;;;;;2.70;0.73;;;;;;;;;;4993851;28;59843;-65
2023/04/04 06:42:25;;;;;;;2.58;1.23;;;;;;;;;;4997773;28;58803;-65
2023/04/04 06:44:51;;;;;;;1.58;1.00;;;;;;;;;;4993935;28;58353;-65
2023/04/04 06:47:16;;;;;;;0.90;0.77;;;;;;;;;;4994222;28;58357;-65
2023/04/04 06:49:41;;;;;;;2.87;1.20;;;;;;;;;;4990855;28;58542;-65
2023/04/04 06:52:06;;;;;;;1.10;0.75;;;;;;;;;;4985501;28;59030;-65
2023/04/04 06:54:32;;;;;;;1.57;1.20;;;;;;;;;;4984282;28;58304;-64
2023/04/04 06:56:57;;;;;;;3.00;0.98;;;;;;;;;;4986200;28;58890;-65
2023/04/04 06:59:22;;;;;;;3.97;1.77;;;;;;;;;;4983309;28;58551;-64
2023/04/04 07:01:47;;;;;;;2.88;1.85;;;;;;;;;;4987613;28;58767;-64
2023/04/04 07:04:12;;;;;;;2.53;1.27;;;;;;;;;;4977832;28;58517;-65
2023/04/04 07:06:37;;;;;;;2.35;1.50;;;;;;;;;;4982822;28;58647;-65
2023/04/04 07:09:03;;;;;;;3.17;1.60;;;;;;;;;;4983873;28;58222;-64
2023/04/04 07:11:28;;;;;;;1.95;1.10;;;;;;;;;;4986034;28;59024;-64
2023/04/04 07:13:53;;;;;;;1.58;1.08;;;;;;;;;;4983908;28;58471;-63
2023/04/04 07:16:19;;;;;;;3.53;1.83;;;;;;;;;;4981637;28;58224;-65
2023/04/04 07:18:44;;;;;;;3.05;0.90;;;;;;;;;;4979328;28;62445;-65
2023/04/04 07:21:09;;;;;;;1.97;1.57;;;;;;;;;;4986207;28;58483;-65
2023/04/04 07:23:35;;;;;;;2.63;1.25;;;;;;;;;;4983924;28;59022;-65
2023/04/04 07:26:00;;;;;;;9.82;2.80;;;;;;;;;;4982900;28;58992;-65
2023/04/04 07:28:25;;;;;;;2.67;1.10;;;;;;;;;;4985314;28;58260;-65
2023/04/04 07:30:51;;;;;;;5.22;1.45;;;;;;;;;;4983448;28;58693;-65
2023/04/04 07:33:16;;;;;;;1.70;1.05;;;;;;;;;;4985934;28;58717;-65
2023/04/04 07:35:41;;;;;;;2.25;1.00;;;;;;;;;;4987275;28;58558;-65
2023/04/04 07:38:06;;;;;;;2.67;0.90;;;;;;;;;;4984149;28;59370;-69
2023/04/04 07:40:31;;;;;;;4.57;2.37;;;;;;;;;;5029428;22;58758;-69
2023/04/04 07:42:56;;;;;;;5.65;1.20;;;;;;;;;;5004904;28;58592;-65
2023/04/04 07:45:21;;;;;;;10.13;1.97;;;;;;;;;;5000723;28;57944;-67
2023/04/04 07:47:47;;;;;;;8.33;1.97;;;;;;;;;;5007578;28;58928;-69
2023/04/04 07:50:12;;;;;;;11.32;1.85;;;;;;;;;;5004584;28;58709;-69
2023/04/04 07:52:38;;;;;;;6.68;1.10;;;;;;;;;;4999768;28;59024;-70
2023/04/04 07:55:04;;;;;;;5.25;1.30;;;;;;;;;;5002667;28;58664;-65
2023/04/04 07:57:30;;;;;;;4.25;1.38;;;;;;;;;;5002632;28;58427;-66
2023/04/04 07:59:55;;;;;;;6.45;1.77;;;;;;;;;;5002309;28;58746;-65
2023/04/04 08:02:20;;;;;;;17.77;2.37;;;;;;;;;;5000538;28;59288;-68
2023/04/04 08:04:45;;;;;;;6.75;1.33;;;;;;;;;;5001860;28;58481;-65
2023/04/04 08:07:10;;;;;;;8.07;1.63;;;;;;;;;;5000021;28;58619;-64
2023/04/04 08:09:36;;;;;;;3.13;2.22;;;;;;;;;;5001593;28;58580;-72
2023/04/04 08:12:02;;;;;;;8.00;2.30;;;;;;;;;;4999983;28;59280;-67
2023/04/04 08:14:27;;;;;;;7.38;1.38;;;;;;;;;;5002537;28;58471;-70
2023/04/04 08:16:52;;;;;;;3.25;1.05;;;;;;;;;;5003487;28;58715;-63
2023/04/04 08:19:17;;;;;;;9.10;1.60;;;;;;;;;;5001131;28;58974;-66
2023/04/04 08:21:43;;;;;;;4.90;1.60;;;;;;;;;;4997932;28;60218;-64
2023/04/04 08:24:08;;;;;;;8.80;2.53;;;;;;;;;;5000821;28;58368;-64
2023/04/04 08:26:33;;;;;;;8.10;1.43;;;;;;;;;;5002291;28;58740;-64
2023/04/04 08:28:58;;;;;;;7.22;1.20;;;;;;;;;;5001013;28;58470;-64
2023/04/04 08:31:24;;;;;;;8.02;2.20;;;;;;;;;;4999508;28;58588;-64
2023/04/04 08:33:49;;;;;;;10.07;1.25;;;;;;;;;;5001813;28;58383;-65
2023/04/04 08:36:15;;;;;;;9.93;1.35;;;;;;;;;;5001767;28;58855;-65
2023/04/04 08:38:40;;;;;;;5.32;1.33;;;;;;;;;;5000338;28;58526;-64
2023/04/04 08:41:05;;;;;;;5.85;1.70;;;;;;;;;;4998770;28;58794;-64
2023/04/04 08:43:33;;;;;;;4.67;1.43;;;;;;;;;;5002509;28;59007;-65
2023/04/04 08:45:58;;;;;;;4.40;1.43;;;;;;;;;;5000004;28;58754;-65
2023/04/04 08:48:25;;;;;;;2.53;0.93;;;;;;;;;;5001620;28;59342;-64
2023/04/04 08:50:52;;;;;;;3.72;1.40;;;;;;;;;;5001518;28;59014;-64
2023/04/04 08:53:18;;;;;;;2.15;0.70;;;;;;;;;;4999038;28;58762;-64
2023/04/04 08:55:43;;;;;;;2.88;1.00;;;;;;;;;;5002729;28;58061;-65
2023/04/04 08:58:08;;;;;;;2.00;1.17;;;;;;;;;;4999855;28;58645;-64
2023/04/04 09:00:33;;;;;;;3.10;0.73;;;;;;;;;;5002040;28;59327;-65
2023/04/04 09:03:19;;;;;;;4.03;1.08;;;;;;;;;;4995642;28;58627;-65
2023/04/04 09:05:44;;;;;;;3.15;0.63;;;;;;;;;;5002023;28;58794;-65
2023/04/04 09:08:09;;;;;;;1.08;0.77;;;;;;;;;;4999245;28;58846;-65
2023/04/04 09:10:36;;;;;;;0.97;0.70;;;;;;;;;;4999472;28;58206;-64
2023/04/04 09:13:01;;;;;;;4.03;0.90;;;;;;;;;;4998521;28;58324;-65
2023/04/04 09:15:27;;;;;;;1.65;0.73;;;;;;;;;;5001268;28;58204;-64
2023/04/04 09:17:53;;;;;;;1.58;0.63;;;;;;;;;;5000551;28;58405;-64
2023/04/04 09:20:34;;;;;;;2.03;1.17;;;;;;;;;;4999936;28;59715;-64
2023/04/04 09:23:00;;;;;;;5.82;1.20;;;;;;;;;;4994667;28;59081;-66
2023/04/04 09:25:25;;;;;;;10.43;1.20;;;;;;;;;;5026443;22;58336;-65
2023/04/04 09:27:52;;;;;;;1.83;1.05;;;;;;;;;;5003226;28;58602;-66
2023/04/04 09:30:17;;;;;;;5.82;1.63;;;;;;;;;;5003511;28;58694;-66
2023/04/04 09:32:43;;;;;;;4.70;1.23;;;;;;;;;;5009410;28;58588;-66
2023/04/04 09:35:09;;;;;;;1.48;1.27;;;;;;;;;;4991171;28;58969;-66
2023/04/04 09:37:34;;;;;;;1.63;1.08;;;;;;;;;;5005525;28;59396;-66
2023/04/04 09:40:00;;;;;;;4.50;1.25;;;;;;;;;;5008486;28;58497;-65
2023/04/04 09:42:25;;;;;;;6.47;1.27;;;;;;;;;;5009498;28;58911;-65
2023/04/04 09:44:53;;;;;;;2.85;1.00;;;;;;;;;;5006789;28;58726;-65
2023/04/04 09:47:22;;;;;;;2.08;0.75;;;;;;;;;;5010886;28;58784;-66
2023/04/04 09:49:48;;;;;;;3.88;0.73;;;;;;;;;;5003887;28;58434;-65
2023/04/04 09:52:17;;;;;;;8.13;1.52;;;;;;;;;;5003424;28;58411;-73
2023/04/04 09:54:42;;;;;;;6.25;1.17;;;;;;;;;;5002512;28;58342;-67
2023/04/04 09:57:07;;;;;;;1.30;0.75;;;;;;;;;;5005369;28;58206;-68
2023/04/04 09:59:32;;;;;;;5.13;1.10;;;;;;;;;;5004567;28;58312;-70
2023/04/04 10:02:00;;;;;;;5.63;1.13;;;;;;;;;;5005347;28;58456;-70
2023/04/04 10:04:27;;;;;;;2.93;1.17;;;;;;;;;;5000329;28;58477;-70
2023/04/04 10:06:52;;;;;;;4.15;0.65;;;;;;;;;;4984832;28;58387;-70
2023/04/04 10:09:18;;;;;;;6.03;1.30;;;;;;;;;;4983276;28;58984;-67
2023/04/04 10:11:44;;;;;;;7.07;1.98;;;;;;;;;;5002681;28;58620;-74
2023/04/04 10:14:09;;;;;;;6.40;1.45;;;;;;;;;;5007043;28;58295;-68
2023/04/04 10:16:36;;;;;;;6.78;1.60;;;;;;;;;;5001564;28;58503;-74
2023/04/04 10:19:02;;;;;;;7.18;1.73;;;;;;;;;;5004819;28;58226;-71
2023/04/04 10:21:27;;;;;;;16.02;2.13;;;;;;;;;;5004920;28;59144;-65
2023/04/04 10:23:53;;;;;;;5.10;0.80;;;;;;;;;;5006470;28;58678;-72
2023/04/04 10:26:18;;;;;;;11.60;2.80;;;;;;;;;;5032046;22;59329;-73
2023/04/04 10:28:43;;;;;;;10.97;2.10;;;;;;;;;;5018558;28;58728;-74
2023/04/04 10:31:15;;;;;;;7.93;0.90;;;;;;;;;;5017151;28;59198;-72
2023/04/04 10:33:45;;;;;;;11.45;0.88;;;;;;;;;;5007109;28;59700;-73
2023/04/04 10:36:11;;;;;;;5.07;1.67;;;;;;;;;;5015941;28;58295;-74
2023/04/04 10:38:40;;;;;;;3.40;0.98;;;;;;;;;;5017264;28;58375;-74
2023/04/04 10:41:06;;;;;;;3.50;1.52;;;;;;;;;;5017798;28;57916;-74
2023/04/04 10:43:33;;;;;;;3.10;1.10;;;;;;;;;;5016791;28;58847;-74
2023/04/04 10:46:04;;;;;;;3.53;0.80;;;;;;;;;;5021592;28;58808;-74
2023/04/04 10:48:29;;;;;;;5.35;1.63;;;;;;;;;;5014781;28;59122;-72
2023/04/04 10:50:55;;;;;;;3.73;1.83;;;;;;;;;;5020198;28;58881;-73
2023/04/04 10:53:21;;;;;;;4.07;1.13;;;;;;;;;;5014578;28;59959;-73
2023/04/04 10:55:46;;;;;;;2.90;1.00;;;;;;;;;;5014734;28;58819;-73
2023/04/04 10:58:11;;;;;;;8.85;0.95;;;;;;;;;;5019100;28;58798;-72
2023/04/04 11:00:48;;;;;;;5.70;0.80;;;;;;;;;;5017129;28;58162;-73
2023/04/04 11:03:13;;;;;;;2.40;1.23;;;;;;;;;;5011678;28;59811;-73
2023/04/04 11:05:46;;;;;;;6.13;1.52;;;;;;;;;;5015215;28;58772;-73
2023/04/04 11:08:15;;;;;;;2.97;0.60;;;;;;;;;;5016767;28;58398;-73
2023/04/04 11:10:41;;;;;;;5.53;0.90;;;;;;;;;;5016486;28;59514;-73
2023/04/04 11:13:22;;;;;;;5.57;2.17;;;;;;;;;;5018910;28;58552;-73
2023/04/04 11:15:58;;;;;;;3.67;0.60;;;;;;;;;;5010155;28;59455;-72
2023/04/04 11:18:39;;;;;;;2.75;1.23;;;;;;;;;;5017068;28;58539;-75
2023/04/04 11:21:13;;;;;;;2.97;0.73;;;;;;;;;;5010182;28;59880;-76
2023/04/04 11:23:50;;;;;;;0.68;0.68;;;;;;;;;;5004741;28;63002;-76
2023/04/04 11:28:49;;;;;;;2.95;0.82;;;;;;;;;;5037259;22;58991;-76
2023/04/04 11:31:18;;;;;;;6.57;1.13;;;;;;;;;;5017097;28;58209;-76
2023/04/04 11:33:54;;;;;;;4.47;1.20;;;;;;;;;;5011340;28;58683;-76
2023/04/04 11:36:38;;;;;;;1.73;1.08;;;;;;;;;;5001937;28;58585;-78
2023/04/04 11:39:05;;;;;;;1.70;0.63;;;;;;;;;;4990557;28;58360;-76
2023/04/04 11:41:43;;;;;;;4.32;1.05;;;;;;;;;;4991583;28;62196;-75
2023/04/04 11:44:09;;;;;;;3.20;1.00;;;;;;;;;;4988973;28;58269;-76
2023/04/04 11:46:34;;;;;;;2.85;1.02;;;;;;;;;;4987294;28;58302;-76
2023/04/04 11:49:00;;;;;;;7.40;0.53;;;;;;;;;;4990380;28;58599;-76
2023/04/04 11:51:25;;;;;;;2.88;0.55;;;;;;;;;;5004075;28;60518;-76
2023/04/04 11:53:51;;;;;;;0.97;0.73;;;;;;;;;;5007941;28;58470;-74
2023/04/04 11:56:17;;;;;;;8.27;0.55;;;;;;;;;;5011099;28;58175;-77
2023/04/04 11:58:45;;;;;;;11.73;1.48;;;;;;;;;;5005328;28;58822;-72
2023/04/04 12:01:10;;;;;;;3.30;0.65;;;;;;;;;;5006593;28;59002;-69
2023/04/04 12:03:35;;;;;;;1.73;0.65;;;;;;;;;;5005258;28;58883;-63
2023/04/04 12:06:00;;;;;;;4.03;0.60;;;;;;;;;;5007165;28;58102;-71
2023/04/04 12:08:26;;;;;;;4.27;1.50;;;;;;;;;;5006237;28;58757;-73
2023/04/04 12:10:52;;;;;;;4.13;1.13;;;;;;;;;;5001299;28;58522;-75
2023/04/04 12:13:17;;;;;;;8.57;1.75;;;;;;;;;;5004228;28;58461;-74
2023/04/04 12:15:42;;;;;;;3.28;1.08;;;;;;;;;;5002619;28;58474;-73
2023/04/04 12:18:08;;;;;;;5.13;1.63;;;;;;;;;;4997759;28;59541;-74
2023/04/04 12:20:36;;;;;;;5.43;1.25;;;;;;;;;;5002493;28;58583;-73
2023/04/04 12:23:01;;;;;;;5.30;1.27;;;;;;;;;;5000624;28;58704;-70
2023/04/04 12:25:28;;;;;;;4.80;1.77;;;;;;;;;;4999274;28;58669;-72
2023/04/04 12:27:54;;;;;;;7.70;1.25;;;;;;;;;;5002909;28;58387;-73
2023/04/04 12:30:20;;;;;;;2.85;0.85;;;;;;;;;;5013474;22;59036;-71
2023/04/04 12:32:49;;;;;;;3.63;0.65;;;;;;;;;;4989964;28;58421;-71
2023/04/04 12:35:14;;;;;;;1.63;0.60;;;;;;;;;;4989991;28;58945;-73
2023/04/04 12:37:55;;;;;;;5.57;1.10;;;;;;;;;;4986712;28;58495;-73
2023/04/04 12:40:20;;;;;;;2.30;1.10;;;;;;;;;;4986438;28;58800;-71
2023/04/04 12:42:47;;;;;;;2.85;0.73;;;;;;;;;;4988227;28;58423;-73
2023/04/04 12:45:12;;;;;;;2.22;0.60;;;;;;;;;;4985402;28;58215;-73
2023/04/04 12:47:38;;;;;;;3.35;1.13;;;;;;;;;;4985379;28;59944;-70
2023/04/04 12:50:07;;;;;;;2.00;0.55;;;;;;;;;;4986284;28;58729;-69
2023/04/04 12:52:33;;;;;;;4.88;0.90;;;;;;;;;;4982609;28;58705;-66
2023/04/04 12:55:01;;;;;;;4.78;1.10;;;;;;;;;;4986771;28;59258;-69
2023/04/04 12:57:28;;;;;;;2.35;0.60;;;;;;;;;;4985463;28;58501;-76
2023/04/04 12:59:54;;;;;;;5.25;0.88;;;;;;;;;;4990282;28;58201;-75
2023/04/04 13:02:20;;;;;;;2.83;0.80;;;;;;;;;;4989081;28;58335;-72
2023/04/04 13:04:46;;;;;;;4.78;0.95;;;;;;;;;;4989490;28;58744;-73
2023/04/04 13:07:26;;;;;;;5.55;0.82;;;;;;;;;;4987032;28;58758;-75
2023/04/04 13:09:52;;;;;;;5.32;1.35;;;;;;;;;;4986256;28;58349;-69
2023/04/04 13:12:18;;;;;;;8.23;1.63;;;;;;;;;;4987055;28;58428;-70
2023/04/04 13:14:55;;;;;;;6.38;0.60;;;;;;;;;;4987718;28;58810;-68
2023/04/04 13:17:21;;;;;;;1.53;0.47;;;;;;;;;;4985380;28;59493;-70
2023/04/04 13:19:46;;;;;;;0.93;0.87;;;;;;;;;;4985850;28;58330;-70
2023/04/04 13:22:11;;;;;;;0.80;0.60;;;;;;;;;;4987334;28;58819;-70
2023/04/04 13:24:36;;;;;;;2.25;0.45;;;;;;;;;;4986945;28;58646;-68
2023/04/04 13:27:01;;;;;;;4.83;1.10;;;;;;;;;;4986933;28;59022;-69
2023/04/04 13:29:26;;;;;;;1.17;0.75;;;;;;;;;;4983447;28;58414;-67
2023/04/04 13:31:52;;;;;;;5.80;0.63;;;;;;;;;;5035330;22;58657;-69
2023/04/04 13:34:17;;;;;;;7.38;1.08;;;;;;;;;;5024878;28;57925;-68
2023/04/04 13:36:43;;;;;;;12.85;0.88;;;;;;;;;;5021406;28;58640;-68
2023/04/04 13:39:08;;;;;;;15.02;1.05;;;;;;;;;;5021281;28;58215;-67
2023/04/04 13:41:33;;;;;;;5.33;1.07;;;;;;;;;;5025099;28;58405;-66
2023/04/04 13:43:58;;;;;;;16.85;1.45;;;;;;;;;;5024690;28;58413;-66
2023/04/04 13:46:23;;;;;;;7.40;0.80;;;;;;;;;;5022754;28;58712;-69
2023/04/04 13:48:48;;;;;;;13.43;1.80;;;;;;;;;;5024431;28;58552;-70
2023/04/04 13:51:14;;;;;;;9.20;1.27;;;;;;;;;;5005595;28;58792;-71
2023/04/04 13:53:40;;;;;;;11.95;1.52;;;;;;;;;;5005630;28;58406;-70
2023/04/04 13:56:05;;;;;;;4.93;1.17;;;;;;;;;;5001378;28;58748;-70
2023/04/04 13:58:31;;;;;;;9.50;1.50;;;;;;;;;;5005067;28;58691;-70
2023/04/04 14:00:56;;;;;;;3.75;0.60;;;;;;;;;;5007934;28;58686;-69
2023/04/04 14:03:22;;;;;;;4.33;0.60;;;;;;;;;;5006947;28;58816;-70
2023/04/04 14:05:47;;;;;;;3.85;1.23;;;;;;;;;;5003971;28;58669;-71
2023/04/04 14:08:13;;;;;;;5.15;0.70;;;;;;;;;;5003838;28;58613;-70
2023/04/04 14:10:38;;;;;;;4.07;0.82;;;;;;;;;;5006533;28;58540;-70
2023/04/04 14:13:03;;;;;;;5.93;0.85;;;;;;;;;;5006373;28;58293;-71
2023/04/04 14:15:28;;;;;;;8.47;1.37;;;;;;;;;;5004967;28;58755;-71
2023/04/04 14:17:53;;;;;;;4.57;1.17;;;;;;;;;;5006191;28;58470;-71
2023/04/04 14:20:19;;;;;;;0.63;0.52;;;;;;;;;;5009057;28;58678;-70
2023/04/04 14:22:44;;;;;;;1.70;0.80;;;;;;;;;;5011017;28;58399;-70
2023/04/04 14:25:09;;;;;;;2.83;0.87;;;;;;;;;;5013871;28;59660;-68
2023/04/04 14:27:34;;;;;;;1.70;0.55;;;;;;;;;;5010603;28;58518;-68
2023/04/04 14:30:00;;;;;;;2.53;1.13;;;;;;;;;;5005575;28;58454;-70
2023/04/04 14:32:25;;;;;;;1.45;0.95;;;;;;;;;;5035493;22;59299;-70
2023/04/04 14:34:50;;;;;;;4.50;0.75;;;;;;;;;;4991701;28;58346;-70
2023/04/04 14:37:16;;;;;;;2.37;0.53;;;;;;;;;;4991307;28;58695;-69
2023/04/04 14:39:41;;;;;;;3.55;0.73;;;;;;;;;;4991443;28;59427;-70